Time;durP1;ratioP1;P1;durP2;ratioP2;P2;SDS_P1;SDS_P2;PMS_P1;PMS_P2;Temp;Humidity;BMP_temperature;BMP_pressure;BME280_temperature;BME280_humidity;BME280_pressure;Samples;Min_cycle;Max_cycle;Signal;HPM_P1;HPM_P2
2021/04/29 00:00:17;;;;;;;13.90;12.60;;;;;;;;;;2095233;28;20237;-56
2021/04/29 00:01:17;;;;;;;15.02;13.63;;;;;;;;;;2093661;28;20292;-58
2021/04/29 00:02:18;;;;;;;13.50;12.30;;;;;;;;;;2095725;28;20565;-57
2021/04/29 00:03:18;;;;;;;15.55;13.57;;;;;;;;;;2093933;28;20670;-56
2021/04/29 00:04:19;;;;;;;15.05;13.65;;;;;;;;;;2096296;28;20179;-59
2021/04/29 00:05:21;;;;;;;13.73;12.45;;;;;;;;;;2096373;28;20203;-56
2021/04/29 00:06:21;;;;;;;14.93;13.50;;;;;;;;;;2095832;28;20938;-60
2021/04/29 00:07:21;;;;;;;12.88;11.77;;;;;;;;;;2095666;28;20159;-56
2021/04/29 00:08:21;;;;;;;13.18;11.98;;;;;;;;;;2094998;28;20209;-57
2021/04/29 00:09:22;;;;;;;13.15;11.90;;;;;;;;;;2097664;28;20171;-58
2021/04/29 00:10:24;;;;;;;14.38;13.18;;;;;;;;;;2095919;28;20170;-56
2021/04/29 00:11:24;;;;;;;13.93;12.63;;;;;;;;;;2096173;28;20171;-55
2021/04/29 00:12:24;;;;;;;15.00;13.75;;;;;;;;;;2097585;28;20175;-57
2021/04/29 00:13:25;;;;;;;14.60;13.30;;;;;;;;;;2095410;28;20662;-58
2021/04/29 00:14:25;;;;;;;14.23;12.93;;;;;;;;;;2097928;28;20178;-58
2021/04/29 00:15:26;;;;;;;14.55;13.15;;;;;;;;;;2097328;28;20177;-56
2021/04/29 00:16:26;;;;;;;15.23;13.55;;;;;;;;;;2097300;28;20229;-58
2021/04/29 00:17:26;;;;;;;15.07;13.55;;;;;;;;;;2095624;28;20240;-58
2021/04/29 00:18:27;;;;;;;14.65;13.20;;;;;;;;;;2095841;28;20206;-58
2021/04/29 00:19:27;;;;;;;15.30;13.77;;;;;;;;;;2096849;28;20783;-59
2021/04/29 00:20:28;;;;;;;15.32;14.00;;;;;;;;;;2097293;28;20635;-59
2021/04/29 00:21:28;;;;;;;15.70;14.23;;;;;;;;;;2096519;28;20206;-57
2021/04/29 00:22:28;;;;;;;15.65;14.18;;;;;;;;;;2097408;28;20202;-58
2021/04/29 00:23:29;;;;;;;14.00;12.50;;;;;;;;;;2096040;28;20175;-59
2021/04/29 00:24:29;;;;;;;14.98;13.50;;;;;;;;;;2097627;28;20698;-58
2021/04/29 00:25:29;;;;;;;14.63;13.23;;;;;;;;;;2097277;28;20183;-58
2021/04/29 00:26:30;;;;;;;14.35;12.98;;;;;;;;;;2097196;28;20191;-59
2021/04/29 00:27:30;;;;;;;15.02;13.55;;;;;;;;;;2096675;28;20179;-58
2021/04/29 00:28:30;;;;;;;14.88;13.48;;;;;;;;;;2097105;28;20195;-57
2021/04/29 00:29:30;;;;;;;13.90;12.57;;;;;;;;;;2096733;28;20640;-56
2021/04/29 00:30:31;;;;;;;17.83;14.63;;;;;;;;;;2095943;28;20792;-57
2021/04/29 00:31:31;;;;;;;14.70;13.40;;;;;;;;;;2096517;28;20643;-58
2021/04/29 00:32:31;;;;;;;15.02;13.45;;;;;;;;;;2096621;28;20246;-61
2021/04/29 00:33:32;;;;;;;15.20;13.90;;;;;;;;;;2097016;28;20175;-58
2021/04/29 00:34:32;;;;;;;14.35;13.13;;;;;;;;;;2097233;28;20250;-57
2021/04/29 00:35:32;;;;;;;15.15;13.75;;;;;;;;;;2097470;28;20199;-58
2021/04/29 00:36:32;;;;;;;15.80;14.27;;;;;;;;;;2097201;28;20241;-59
2021/04/29 00:37:33;;;;;;;15.02;13.65;;;;;;;;;;2097723;28;20190;-58
2021/04/29 00:38:33;;;;;;;16.13;14.70;;;;;;;;;;2095343;28;20167;-58
2021/04/29 00:39:33;;;;;;;16.42;14.98;;;;;;;;;;2096520;28;20607;-59
2021/04/29 00:40:34;;;;;;;16.88;15.27;;;;;;;;;;2096486;28;20717;-59
2021/04/29 00:41:34;;;;;;;16.05;14.55;;;;;;;;;;2097325;28;20666;-58
2021/04/29 00:42:35;;;;;;;15.50;13.93;;;;;;;;;;2096917;28;20176;-58
2021/04/29 00:43:35;;;;;;;15.30;13.93;;;;;;;;;;2096723;28;20174;-55
2021/04/29 00:44:36;;;;;;;15.02;13.65;;;;;;;;;;2096897;28;20187;-59
2021/04/29 00:45:36;;;;;;;15.00;13.70;;;;;;;;;;2096877;28;20163;-58
2021/04/29 00:46:36;;;;;;;15.75;14.05;;;;;;;;;;2096317;28;20198;-59
2021/04/29 00:47:37;;;;;;;16.25;14.75;;;;;;;;;;2097845;28;20171;-57
2021/04/29 00:48:37;;;;;;;15.57;14.18;;;;;;;;;;2096149;28;20182;-59
2021/04/29 00:49:37;;;;;;;16.45;15.00;;;;;;;;;;2097031;28;20249;-59
2021/04/29 00:50:38;;;;;;;19.10;14.85;;;;;;;;;;2093172;28;20592;-60
2021/04/29 00:51:38;;;;;;;14.55;13.15;;;;;;;;;;2097496;28;20690;-61
2021/04/29 00:52:38;;;;;;;16.92;15.25;;;;;;;;;;2097104;28;20213;-59
2021/04/29 00:53:40;;;;;;;16.00;14.40;;;;;;;;;;2096334;28;20171;-57
2021/04/29 00:54:40;;;;;;;16.00;14.48;;;;;;;;;;2094336;28;20190;-60
2021/04/29 00:55:40;;;;;;;15.32;13.82;;;;;;;;;;2096549;28;20576;-60
2021/04/29 00:56:41;;;;;;;17.70;14.15;;;;;;;;;;2096366;28;20209;-59
2021/04/29 00:57:41;;;;;;;14.82;13.32;;;;;;;;;;2096533;28;20199;-57
2021/04/29 00:58:41;;;;;;;15.88;14.43;;;;;;;;;;2096557;28;20202;-58
2021/04/29 00:59:42;;;;;;;16.33;14.30;;;;;;;;;;2097051;28;20246;-55
2021/04/29 01:00:42;;;;;;;16.38;14.77;;;;;;;;;;2096809;28;20233;-60
2021/04/29 01:01:44;;;;;;;15.90;14.40;;;;;;;;;;2096444;28;20187;-59
2021/04/29 01:02:49;;;;;;;14.88;13.63;;;;;;;;;;2093771;28;20190;-60
2021/04/29 01:04:01;;;;;;;15.63;14.15;;;;;;;;;;2100084;28;20663;-59
2021/04/29 01:05:06;;;;;;;15.73;14.13;;;;;;;;;;2093920;28;20174;-57
2021/04/29 01:06:09;;;;;;;15.18;13.73;;;;;;;;;;2097316;28;20210;-52
2021/04/29 01:07:11;;;;;;;15.45;14.05;;;;;;;;;;2088606;28;20176;-54
2021/04/29 01:08:17;;;;;;;16.30;14.68;;;;;;;;;;2086532;28;20171;-58
2021/04/29 01:09:30;;;;;;;15.45;13.95;;;;;;;;;;2096251;28;20748;-58
2021/04/29 01:10:33;;;;;;;14.13;12.82;;;;;;;;;;2096773;28;20179;-57
2021/04/29 01:11:34;;;;;;;14.93;13.43;;;;;;;;;;2097121;28;20228;-60
2021/04/29 01:12:37;;;;;;;16.80;15.07;;;;;;;;;;2093928;28;20896;-59
2021/04/29 01:13:38;;;;;;;15.93;14.32;;;;;;;;;;2087712;28;20194;-54
2021/04/29 01:14:38;;;;;;;15.93;14.23;;;;;;;;;;2096291;28;20245;-60
2021/04/29 01:15:42;;;;;;;15.90;14.43;;;;;;;;;;2095630;28;20193;-57
2021/04/29 01:16:49;;;;;;;16.00;14.50;;;;;;;;;;2097262;28;20269;-59
2021/04/29 01:17:49;;;;;;;16.23;14.57;;;;;;;;;;2093924;28;20647;-59
2021/04/29 01:18:51;;;;;;;15.80;14.23;;;;;;;;;;2097096;28;20167;-60
2021/04/29 01:19:59;;;;;;;16.08;14.57;;;;;;;;;;2094088;28;20562;-57
2021/04/29 01:21:03;;;;;;;17.70;14.30;;;;;;;;;;2092928;28;20203;-57
2021/04/29 01:22:04;;;;;;;15.40;13.98;;;;;;;;;;2093454;28;20191;-58
2021/04/29 01:23:04;;;;;;;15.90;14.48;;;;;;;;;;2088246;28;20184;-60
2021/04/29 01:24:07;;;;;;;16.17;14.68;;;;;;;;;;2088196;28;20175;-58
2021/04/29 01:25:10;;;;;;;16.45;15.02;;;;;;;;;;2096287;28;20168;-56
2021/04/29 01:26:18;;;;;;;16.27;14.77;;;;;;;;;;2097613;28;20232;-57
2021/04/29 01:27:19;;;;;;;15.98;14.57;;;;;;;;;;2094064;28;20183;-57
2021/04/29 01:28:20;;;;;;;16.65;14.98;;;;;;;;;;2097493;28;20205;-56
2021/04/29 01:29:24;;;;;;;18.17;16.27;;;;;;;;;;2096484;28;20170;-60
2021/04/29 01:30:26;;;;;;;20.58;18.30;;;;;;;;;;2097012;28;20744;-60
2021/04/29 01:31:29;;;;;;;21.75;19.45;;;;;;;;;;2096267;28;20224;-57
2021/04/29 01:32:29;;;;;;;21.25;19.13;;;;;;;;;;2097759;28;20652;-56
2021/04/29 01:33:29;;;;;;;22.95;20.50;;;;;;;;;;2096359;28;20186;-57
2021/04/29 01:34:32;;;;;;;21.95;19.73;;;;;;;;;;2097374;28;20178;-56
2021/04/29 01:35:32;;;;;;;18.77;17.00;;;;;;;;;;2096890;28;20174;-58
2021/04/29 01:36:34;;;;;;;19.90;17.80;;;;;;;;;;2097267;28;20167;-60
2021/04/29 01:37:34;;;;;;;17.58;15.98;;;;;;;;;;2097069;28;20167;-60
2021/04/29 01:38:36;;;;;;;15.73;14.32;;;;;;;;;;2093928;28;20732;-59
2021/04/29 01:39:37;;;;;;;17.75;16.10;;;;;;;;;;2095788;28;20183;-59
2021/04/29 01:40:37;;;;;;;17.85;15.43;;;;;;;;;;2096314;28;20179;-57
2021/04/29 01:41:38;;;;;;;16.38;14.73;;;;;;;;;;2088378;28;20935;-59
2021/04/29 01:42:39;;;;;;;15.88;14.35;;;;;;;;;;2093576;28;20162;-58
2021/04/29 01:43:40;;;;;;;16.67;15.07;;;;;;;;;;2096621;28;20737;-58
2021/04/29 01:44:40;;;;;;;16.40;14.75;;;;;;;;;;2096467;28;20558;-57
2021/04/29 01:45:42;;;;;;;15.27;13.77;;;;;;;;;;2095321;28;20171;-60
2021/04/29 01:46:42;;;;;;;16.08;14.40;;;;;;;;;;2096250;28;20177;-59
2021/04/29 01:47:43;;;;;;;16.65;14.93;;;;;;;;;;2096702;28;20178;-60
2021/04/29 01:48:43;;;;;;;16.63;15.15;;;;;;;;;;2096378;28;20265;-59
2021/04/29 01:49:44;;;;;;;18.42;15.27;;;;;;;;;;2096399;28;20176;-59
2021/04/29 01:50:45;;;;;;;16.58;14.68;;;;;;;;;;2093184;28;20618;-60
2021/04/29 01:51:46;;;;;;;21.77;15.15;;;;;;;;;;2096638;28;20190;-57
2021/04/29 01:52:46;;;;;;;18.83;15.32;;;;;;;;;;2096027;28;20175;-60
2021/04/29 01:53:48;;;;;;;29.55;16.13;;;;;;;;;;2097159;28;20242;-58
2021/04/29 01:54:55;;;;;;;20.52;15.00;;;;;;;;;;2092770;28;20293;-52
2021/04/29 01:55:56;;;;;;;20.05;15.23;;;;;;;;;;2097340;28;20870;-52
2021/04/29 01:56:56;;;;;;;21.92;15.65;;;;;;;;;;2095526;28;20179;-51
2021/04/29 01:57:56;;;;;;;16.35;14.50;;;;;;;;;;2087502;28;20255;-52
2021/04/29 01:58:57;;;;;;;16.98;14.80;;;;;;;;;;2093194;28;20185;-53
2021/04/29 01:59:58;;;;;;;19.95;14.95;;;;;;;;;;2096235;28;20163;-53
2021/04/29 02:01:00;;;;;;;22.60;15.45;;;;;;;;;;2095568;28;20725;-52
2021/04/29 02:02:00;;;;;;;27.98;15.40;;;;;;;;;;2095279;28;20207;-53
2021/04/29 02:03:01;;;;;;;27.40;16.50;;;;;;;;;;2096869;28;20187;-51
2021/04/29 02:04:01;;;;;;;18.00;15.35;;;;;;;;;;2096024;28;20171;-53
2021/04/29 02:05:02;;;;;;;22.48;15.20;;;;;;;;;;2093933;28;20163;-50
2021/04/29 02:06:02;;;;;;;20.70;15.00;;;;;;;;;;2093855;28;20678;-52
2021/04/29 02:07:03;;;;;;;15.55;14.10;;;;;;;;;;2092973;28;20190;-51
2021/04/29 02:08:04;;;;;;;17.67;14.73;;;;;;;;;;2093265;28;20286;-53
2021/04/29 02:09:05;;;;;;;16.17;14.57;;;;;;;;;;2093755;28;21059;-51
2021/04/29 02:10:06;;;;;;;15.90;14.15;;;;;;;;;;2093051;28;20167;-53
2021/04/29 02:11:08;;;;;;;16.75;14.90;;;;;;;;;;2093356;28;20538;-50
2021/04/29 02:12:09;;;;;;;16.38;14.75;;;;;;;;;;2094173;28;20655;-51
2021/04/29 02:13:11;;;;;;;15.45;13.77;;;;;;;;;;2093485;28;20182;-50
2021/04/29 02:14:13;;;;;;;15.95;14.45;;;;;;;;;;2093987;28;20205;-50
2021/04/29 02:15:13;;;;;;;15.38;13.93;;;;;;;;;;2093382;28;20171;-51
2021/04/29 02:16:29;;;;;;;16.05;14.55;;;;;;;;;;2093526;28;20181;-52
2021/04/29 02:17:42;;;;;;;15.68;14.13;;;;;;;;;;2088133;28;20218;-55
2021/04/29 02:18:45;;;;;;;16.38;14.73;;;;;;;;;;2088872;28;20183;-58
2021/04/29 02:19:47;;;;;;;15.77;14.27;;;;;;;;;;2091343;28;20178;-52
2021/04/29 02:20:48;;;;;;;16.95;15.45;;;;;;;;;;2092920;28;20182;-53
2021/04/29 02:21:48;;;;;;;17.25;15.55;;;;;;;;;;2094648;28;20183;-51
2021/04/29 02:22:49;;;;;;;15.95;14.30;;;;;;;;;;2094680;28;20164;-51
2021/04/29 02:23:50;;;;;;;16.42;14.80;;;;;;;;;;2092924;28;20163;-49
2021/04/29 02:24:53;;;;;;;16.23;14.65;;;;;;;;;;2093790;28;20211;-51
2021/04/29 02:25:54;;;;;;;16.15;14.70;;;;;;;;;;2094099;28;20543;-52
2021/04/29 02:26:55;;;;;;;16.63;14.98;;;;;;;;;;2093717;28;20602;-51
2021/04/29 02:27:55;;;;;;;16.33;14.82;;;;;;;;;;2094280;28;20168;-51
2021/04/29 02:28:56;;;;;;;16.33;14.60;;;;;;;;;;2094800;28;20642;-49
2021/04/29 02:29:56;;;;;;;17.15;15.48;;;;;;;;;;2095891;28;20175;-50
2021/04/29 02:30:57;;;;;;;17.10;15.40;;;;;;;;;;2095082;28;20171;-50
2021/04/29 02:31:57;;;;;;;16.63;15.02;;;;;;;;;;2094800;28;20168;-51
2021/04/29 02:32:58;;;;;;;15.88;14.55;;;;;;;;;;2092325;28;20176;-50
2021/04/29 02:33:59;;;;;;;16.48;14.95;;;;;;;;;;2094382;28;20190;-51
2021/04/29 02:35:01;;;;;;;17.90;15.18;;;;;;;;;;2094732;28;20171;-51
2021/04/29 02:36:03;;;;;;;16.98;15.38;;;;;;;;;;2095750;28;20186;-50
2021/04/29 02:37:03;;;;;;;16.15;14.65;;;;;;;;;;2096486;28;20294;-50
2021/04/29 02:38:04;;;;;;;16.05;14.55;;;;;;;;;;2097467;28;20171;-50
2021/04/29 02:39:05;;;;;;;17.00;15.32;;;;;;;;;;2096507;28;20219;-50
2021/04/29 02:40:08;;;;;;;15.85;14.45;;;;;;;;;;2091375;28;20762;-51
2021/04/29 02:41:08;;;;;;;17.05;15.35;;;;;;;;;;2093321;28;20693;-50
2021/04/29 02:42:11;;;;;;;17.65;16.08;;;;;;;;;;2092828;28;20233;-51
2021/04/29 02:43:12;;;;;;;16.75;15.10;;;;;;;;;;2094615;28;20159;-49
2021/04/29 02:44:12;;;;;;;16.67;14.95;;;;;;;;;;2094697;28;20214;-51
2021/04/29 02:45:14;;;;;;;17.10;15.38;;;;;;;;;;2094832;28;20259;-50
2021/04/29 02:46:14;;;;;;;16.98;15.25;;;;;;;;;;2093904;28;20292;-50
2021/04/29 02:47:15;;;;;;;19.27;15.48;;;;;;;;;;2095698;28;20187;-52
2021/04/29 02:48:16;;;;;;;17.00;15.40;;;;;;;;;;2086775;28;20171;-52
2021/04/29 02:49:17;;;;;;;16.30;14.88;;;;;;;;;;2088222;28;20662;-52
2021/04/29 02:50:18;;;;;;;17.58;15.75;;;;;;;;;;2095918;28;20183;-52
2021/04/29 02:51:19;;;;;;;17.50;15.88;;;;;;;;;;2093118;28;20171;-52
2021/04/29 02:52:19;;;;;;;17.08;15.30;;;;;;;;;;2093161;28;20206;-52
2021/04/29 02:53:20;;;;;;;17.60;15.80;;;;;;;;;;2097489;28;20224;-53
2021/04/29 02:54:22;;;;;;;17.83;16.15;;;;;;;;;;2098692;28;20255;-51
2021/04/29 02:55:23;;;;;;;18.25;15.98;;;;;;;;;;2101082;28;20174;-51
2021/04/29 02:56:23;;;;;;;17.50;15.73;;;;;;;;;;2091398;28;20210;-52
2021/04/29 02:57:23;;;;;;;17.02;15.32;;;;;;;;;;2094568;28;20261;-52
2021/04/29 02:58:24;;;;;;;16.75;15.05;;;;;;;;;;2103019;28;20402;-52
2021/04/29 02:59:24;;;;;;;16.60;15.07;;;;;;;;;;2100202;28;20178;-51
2021/04/29 03:00:25;;;;;;;16.70;15.00;;;;;;;;;;2089039;28;20209;-51
2021/04/29 03:01:25;;;;;;;16.65;15.07;;;;;;;;;;2093855;28;20194;-51
2021/04/29 03:02:25;;;;;;;17.25;15.57;;;;;;;;;;2099939;28;20179;-51
2021/04/29 03:03:26;;;;;;;17.35;15.65;;;;;;;;;;2099355;28;20206;-51
2021/04/29 03:04:26;;;;;;;17.70;15.30;;;;;;;;;;2102510;28;20239;-51
2021/04/29 03:05:26;;;;;;;16.98;15.40;;;;;;;;;;2105965;28;20190;-57
2021/04/29 03:06:27;;;;;;;19.95;16.23;;;;;;;;;;2105017;28;20194;-55
2021/04/29 03:07:27;;;;;;;20.50;15.73;;;;;;;;;;2093686;28;20164;-54
2021/04/29 03:08:27;;;;;;;16.48;14.88;;;;;;;;;;2094938;28;20235;-50
2021/04/29 03:09:27;;;;;;;17.80;15.90;;;;;;;;;;2101418;28;20174;-52
2021/04/29 03:10:28;;;;;;;17.15;15.45;;;;;;;;;;2102849;28;20162;-51
2021/04/29 03:11:28;;;;;;;17.17;15.57;;;;;;;;;;2101035;28;20170;-51
2021/04/29 03:12:28;;;;;;;17.25;15.63;;;;;;;;;;2100381;28;20548;-51
2021/04/29 03:13:29;;;;;;;17.15;15.35;;;;;;;;;;2092940;28;20175;-51
2021/04/29 03:14:29;;;;;;;17.83;15.93;;;;;;;;;;2094986;28;20247;-49
2021/04/29 03:15:29;;;;;;;17.38;15.75;;;;;;;;;;2105209;28;20185;-51
2021/04/29 03:16:30;;;;;;;17.83;15.98;;;;;;;;;;2103112;28;20545;-52
2021/04/29 03:17:30;;;;;;;17.90;16.23;;;;;;;;;;2101537;28;20583;-53
2021/04/29 03:18:30;;;;;;;16.17;14.68;;;;;;;;;;2100628;28;20178;-53
2021/04/29 03:19:31;;;;;;;17.25;15.65;;;;;;;;;;2092794;28;20180;-50
2021/04/29 03:20:31;;;;;;;18.70;16.48;;;;;;;;;;2087628;28;20194;-50
2021/04/29 03:21:31;;;;;;;19.85;17.80;;;;;;;;;;2095510;28;20245;-50
2021/04/29 03:22:31;;;;;;;17.75;15.85;;;;;;;;;;2103836;28;20162;-51
2021/04/29 03:23:32;;;;;;;19.05;16.85;;;;;;;;;;2099372;28;20162;-54
2021/04/29 03:24:32;;;;;;;19.45;16.88;;;;;;;;;;2102906;28;20221;-51
2021/04/29 03:25:32;;;;;;;18.38;16.38;;;;;;;;;;2102785;28;20173;-50
2021/04/29 03:26:33;;;;;;;17.38;15.60;;;;;;;;;;2103076;28;20162;-51
2021/04/29 03:27:33;;;;;;;17.17;15.43;;;;;;;;;;2102377;28;20261;-53
2021/04/29 03:28:33;;;;;;;17.15;15.50;;;;;;;;;;2102959;28;20193;-52
2021/04/29 03:29:34;;;;;;;17.23;15.60;;;;;;;;;;2100198;28;20175;-53
2021/04/29 03:30:34;;;;;;;17.85;16.25;;;;;;;;;;2099976;28;20605;-50
2021/04/29 03:31:34;;;;;;;17.30;15.80;;;;;;;;;;2100089;28;20175;-53
2021/04/29 03:32:35;;;;;;;17.42;15.73;;;;;;;;;;2099100;28;20174;-53
2021/04/29 03:33:35;;;;;;;18.42;16.65;;;;;;;;;;2101669;28;20254;-51
2021/04/29 03:34:35;;;;;;;18.45;16.50;;;;;;;;;;2091370;28;20183;-54
2021/04/29 03:35:35;;;;;;;18.83;17.05;;;;;;;;;;2096021;28;20202;-51
2021/04/29 03:36:37;;;;;;;17.60;15.90;;;;;;;;;;2100649;28;20159;-51
2021/04/29 03:37:37;;;;;;;18.13;16.30;;;;;;;;;;2103119;28;20170;-51
2021/04/29 03:38:37;;;;;;;16.75;15.15;;;;;;;;;;2099417;28;20198;-51
2021/04/29 03:39:38;;;;;;;17.73;15.82;;;;;;;;;;2094118;28;20202;-52
2021/04/29 03:40:38;;;;;;;17.30;15.70;;;;;;;;;;2094529;28;20224;-55
2021/04/29 03:41:39;;;;;;;18.90;16.95;;;;;;;;;;2104410;28;20680;-51
2021/04/29 03:42:39;;;;;;;18.45;16.48;;;;;;;;;;2104752;28;20177;-53
2021/04/29 03:43:39;;;;;;;17.20;15.60;;;;;;;;;;2099670;28;20163;-51
2021/04/29 03:44:40;;;;;;;17.35;15.75;;;;;;;;;;2104179;28;20293;-55
2021/04/29 03:45:40;;;;;;;17.58;15.82;;;;;;;;;;2101536;28;20185;-52
2021/04/29 03:46:40;;;;;;;17.70;15.75;;;;;;;;;;2104794;28;20189;-51
2021/04/29 03:47:41;;;;;;;17.10;15.60;;;;;;;;;;2102477;28;20183;-52
2021/04/29 03:48:41;;;;;;;18.67;16.70;;;;;;;;;;2105492;28;20175;-53
2021/04/29 03:49:41;;;;;;;18.13;16.42;;;;;;;;;;2090382;28;20207;-49
2021/04/29 03:50:42;;;;;;;19.15;15.57;;;;;;;;;;2089775;28;20250;-54
2021/04/29 03:51:42;;;;;;;18.92;16.73;;;;;;;;;;2100209;28;20166;-56
2021/04/29 03:52:42;;;;;;;18.92;17.08;;;;;;;;;;2104325;28;20547;-49
2021/04/29 03:53:42;;;;;;;19.83;17.80;;;;;;;;;;2100128;28;20806;-52
2021/04/29 03:54:43;;;;;;;18.77;16.90;;;;;;;;;;2106595;28;20204;-51
2021/04/29 03:55:43;;;;;;;18.38;16.77;;;;;;;;;;2102820;28;20179;-50
2021/04/29 03:56:43;;;;;;;19.38;17.38;;;;;;;;;;2106344;28;20170;-51
2021/04/29 03:57:44;;;;;;;19.88;17.48;;;;;;;;;;2103692;28;20778;-50
2021/04/29 03:58:44;;;;;;;19.52;16.40;;;;;;;;;;2092466;28;20632;-49
2021/04/29 03:59:45;;;;;;;19.00;17.23;;;;;;;;;;2094154;28;20186;-53
2021/04/29 04:00:45;;;;;;;20.02;17.60;;;;;;;;;;2102169;28;20171;-52
2021/04/29 04:01:45;;;;;;;19.08;17.10;;;;;;;;;;2103904;28;20178;-53
2021/04/29 04:02:46;;;;;;;18.70;16.90;;;;;;;;;;2103541;28;20163;-50
2021/04/29 04:03:46;;;;;;;21.17;18.80;;;;;;;;;;2101589;28;20193;-50
2021/04/29 04:04:46;;;;;;;19.52;17.63;;;;;;;;;;2101337;28;20217;-53
2021/04/29 04:05:47;;;;;;;19.67;17.70;;;;;;;;;;2102253;28;20193;-54
2021/04/29 04:06:47;;;;;;;20.02;17.92;;;;;;;;;;2092801;28;20624;-52
2021/04/29 04:07:47;;;;;;;18.48;16.67;;;;;;;;;;2094927;28;20182;-49
2021/04/29 04:08:47;;;;;;;19.80;17.92;;;;;;;;;;2096158;28;20749;-54
2021/04/29 04:09:47;;;;;;;21.52;19.25;;;;;;;;;;2097539;28;20266;-53
2021/04/29 04:10:48;;;;;;;19.88;18.05;;;;;;;;;;2096606;28;20178;-50
2021/04/29 04:11:48;;;;;;;19.58;17.67;;;;;;;;;;2099935;28;20194;-50
2021/04/29 04:12:48;;;;;;;18.70;16.85;;;;;;;;;;2103621;28;20178;-51
2021/04/29 04:13:49;;;;;;;19.17;17.23;;;;;;;;;;2104986;28;20179;-52
2021/04/29 04:14:49;;;;;;;21.25;18.55;;;;;;;;;;2102627;28;20187;-53
2021/04/29 04:15:49;;;;;;;19.98;18.08;;;;;;;;;;2105104;28;20258;-51
2021/04/29 04:16:49;;;;;;;23.98;17.17;;;;;;;;;;2105578;28;20162;-51
2021/04/29 04:17:50;;;;;;;19.35;17.30;;;;;;;;;;2106677;28;20269;-52
2021/04/29 04:18:50;;;;;;;22.25;18.08;;;;;;;;;;2095682;28;20178;-52
2021/04/29 04:19:50;;;;;;;19.05;17.25;;;;;;;;;;2094057;28;20171;-51
2021/04/29 04:20:50;;;;;;;20.35;18.15;;;;;;;;;;2097335;28;20204;-50
2021/04/29 04:21:51;;;;;;;21.00;18.92;;;;;;;;;;2096255;28;20183;-50
2021/04/29 04:22:51;;;;;;;21.73;18.77;;;;;;;;;;2100371;28;20171;-51
2021/04/29 04:23:51;;;;;;;20.63;18.52;;;;;;;;;;2102336;28;20174;-52
2021/04/29 04:24:51;;;;;;;22.50;19.15;;;;;;;;;;2093819;28;20724;-50
2021/04/29 04:25:52;;;;;;;21.05;18.67;;;;;;;;;;2096513;28;20209;-51
2021/04/29 04:26:52;;;;;;;22.33;19.80;;;;;;;;;;2102560;28;20584;-54
2021/04/29 04:27:52;;;;;;;22.23;18.17;;;;;;;;;;2088101;28;20183;-54
2021/04/29 04:28:54;;;;;;;20.15;18.10;;;;;;;;;;2084100;28;20176;-51
2021/04/29 04:29:54;;;;;;;22.42;20.08;;;;;;;;;;2102825;28;20170;-51
2021/04/29 04:30:55;;;;;;;21.75;19.00;;;;;;;;;;2096835;28;20180;-52
2021/04/29 04:31:55;;;;;;;20.33;17.98;;;;;;;;;;2086987;28;20172;-50
2021/04/29 04:32:55;;;;;;;20.92;18.77;;;;;;;;;;2090008;28;20663;-58
2021/04/29 04:33:56;;;;;;;24.10;18.17;;;;;;;;;;2104264;28;20170;-51
2021/04/29 04:34:56;;;;;;;22.70;19.48;;;;;;;;;;2106472;28;20543;-50
2021/04/29 04:35:56;;;;;;;21.80;19.70;;;;;;;;;;2095353;28;20179;-51
2021/04/29 04:36:57;;;;;;;21.27;19.17;;;;;;;;;;2094709;28;20165;-51
2021/04/29 04:37:57;;;;;;;22.17;19.88;;;;;;;;;;2103080;28;20174;-52
2021/04/29 04:38:57;;;;;;;21.30;19.17;;;;;;;;;;2106802;28;20659;-50
2021/04/29 04:39:57;;;;;;;21.70;19.50;;;;;;;;;;2108791;28;20837;-48
2021/04/29 04:40:58;;;;;;;21.10;19.00;;;;;;;;;;2112505;28;20205;-50
2021/04/29 04:41:58;;;;;;;21.27;19.13;;;;;;;;;;2107360;28;20236;-49
2021/04/29 04:42:58;;;;;;;21.45;19.25;;;;;;;;;;2108941;28;20660;-50
2021/04/29 04:43:59;;;;;;;22.50;20.27;;;;;;;;;;2104415;28;20173;-50
2021/04/29 04:44:59;;;;;;;22.10;19.90;;;;;;;;;;2103487;28;20182;-50
2021/04/29 04:45:59;;;;;;;22.63;19.75;;;;;;;;;;2104705;28;20171;-51
2021/04/29 04:46:59;;;;;;;21.80;19.70;;;;;;;;;;2103947;28;20261;-51
2021/04/29 04:48:00;;;;;;;22.15;20.05;;;;;;;;;;2103359;28;20194;-51
2021/04/29 04:49:00;;;;;;;22.20;20.00;;;;;;;;;;2104870;28;20182;-51
2021/04/29 04:50:00;;;;;;;21.77;19.58;;;;;;;;;;2087330;28;20171;-50
2021/04/29 04:51:01;;;;;;;22.75;20.52;;;;;;;;;;2086545;28;20179;-57
2021/04/29 04:52:01;;;;;;;24.20;20.90;;;;;;;;;;2103374;28;20277;-55
2021/04/29 04:53:01;;;;;;;22.83;20.50;;;;;;;;;;2104462;28;20690;-49
2021/04/29 04:54:02;;;;;;;23.33;20.90;;;;;;;;;;2103914;28;20173;-51
2021/04/29 04:55:03;;;;;;;22.27;19.92;;;;;;;;;;2107742;28;20202;-50
2021/04/29 04:56:03;;;;;;;22.17;19.98;;;;;;;;;;2101317;28;20175;-51
2021/04/29 04:57:04;;;;;;;22.38;19.83;;;;;;;;;;2107120;28;20186;-52
2021/04/29 04:58:04;;;;;;;21.80;19.60;;;;;;;;;;2106400;28;20185;-51
2021/04/29 04:59:05;;;;;;;23.23;21.05;;;;;;;;;;2104614;28;20239;-51
2021/04/29 05:00:05;;;;;;;23.80;21.40;;;;;;;;;;2101141;28;20167;-51
2021/04/29 05:01:06;;;;;;;23.63;21.42;;;;;;;;;;2101475;28;20203;-50
2021/04/29 05:02:06;;;;;;;21.33;19.17;;;;;;;;;;2102452;28;20715;-50
2021/04/29 05:03:06;;;;;;;23.30;20.90;;;;;;;;;;2105149;28;20167;-52
2021/04/29 05:04:07;;;;;;;22.83;20.45;;;;;;;;;;2095875;28;20183;-55
2021/04/29 05:05:07;;;;;;;23.73;21.42;;;;;;;;;;2094336;28;20588;-55
2021/04/29 05:06:08;;;;;;;22.77;20.58;;;;;;;;;;2102470;28;20542;-55
2021/04/29 05:07:09;;;;;;;23.23;20.98;;;;;;;;;;2101802;28;20170;-57
2021/04/29 05:08:09;;;;;;;23.13;20.75;;;;;;;;;;2104262;28;20572;-58
2021/04/29 05:09:10;;;;;;;24.73;22.33;;;;;;;;;;2102431;28;20186;-57
2021/04/29 05:10:10;;;;;;;26.45;21.95;;;;;;;;;;2105346;28;20399;-57
2021/04/29 05:11:10;;;;;;;23.55;21.02;;;;;;;;;;2101707;28;20235;-52
2021/04/29 05:12:11;;;;;;;24.10;21.60;;;;;;;;;;2092839;28;20258;-53
2021/04/29 05:13:11;;;;;;;24.45;21.92;;;;;;;;;;2097184;28;20254;-54
2021/04/29 05:14:11;;;;;;;24.85;22.35;;;;;;;;;;2106156;28;20659;-54
2021/04/29 05:15:12;;;;;;;23.08;20.80;;;;;;;;;;2107151;28;20642;-58
2021/04/29 05:16:12;;;;;;;22.30;20.00;;;;;;;;;;2106946;28;20170;-56
2021/04/29 05:17:12;;;;;;;23.55;21.10;;;;;;;;;;2107113;28;20635;-56
2021/04/29 05:18:12;;;;;;;23.23;20.73;;;;;;;;;;2107041;28;20558;-56
2021/04/29 05:19:13;;;;;;;23.05;20.83;;;;;;;;;;2097224;28;20175;-55
2021/04/29 05:20:13;;;;;;;22.88;20.67;;;;;;;;;;2092760;28;20640;-57
2021/04/29 05:21:13;;;;;;;22.35;20.05;;;;;;;;;;2103787;28;20296;-53
2021/04/29 05:22:15;;;;;;;22.77;20.48;;;;;;;;;;2101862;28;20246;-55
2021/04/29 05:23:15;;;;;;;23.02;20.75;;;;;;;;;;2105498;28;20198;-57
2021/04/29 05:24:16;;;;;;;22.67;20.50;;;;;;;;;;2099033;28;20194;-57
2021/04/29 05:25:19;;;;;;;25.08;22.63;;;;;;;;;;2101491;28;20175;-61
2021/04/29 05:26:19;;;;;;;23.20;20.90;;;;;;;;;;2107837;28;20178;-56
2021/04/29 05:27:19;;;;;;;23.08;20.83;;;;;;;;;;2095792;28;20197;-58
2021/04/29 05:28:19;;;;;;;25.55;21.77;;;;;;;;;;2094562;28;20175;-54
2021/04/29 05:29:20;;;;;;;22.55;20.35;;;;;;;;;;2107236;28;20165;-54
2021/04/29 05:30:20;;;;;;;23.65;21.30;;;;;;;;;;2096420;28;20536;-57
2021/04/29 05:31:20;;;;;;;24.73;22.27;;;;;;;;;;2093561;28;20233;-58
2021/04/29 05:32:21;;;;;;;22.83;20.63;;;;;;;;;;2092998;28;20262;-54
2021/04/29 05:33:21;;;;;;;23.20;20.60;;;;;;;;;;2101421;28;20647;-58
2021/04/29 05:34:21;;;;;;;23.63;21.13;;;;;;;;;;2104460;28;20190;-56
2021/04/29 05:35:22;;;;;;;22.80;20.45;;;;;;;;;;2101030;28;20175;-57
2021/04/29 05:36:22;;;;;;;22.13;19.88;;;;;;;;;;2105257;28;20169;-58
2021/04/29 05:37:24;;;;;;;22.90;20.58;;;;;;;;;;2105076;28;20197;-58
2021/04/29 05:38:24;;;;;;;22.73;20.48;;;;;;;;;;2109867;28;20195;-56
2021/04/29 05:39:24;;;;;;;21.05;18.92;;;;;;;;;;2106517;28;20190;-57
2021/04/29 05:40:25;;;;;;;19.73;17.73;;;;;;;;;;2111216;28;20197;-58
2021/04/29 05:41:25;;;;;;;21.48;19.48;;;;;;;;;;2110050;28;20702;-55
2021/04/29 05:42:25;;;;;;;21.38;19.20;;;;;;;;;;2102138;28;20641;-54
2021/04/29 05:43:26;;;;;;;20.13;18.15;;;;;;;;;;2096137;28;20164;-57
2021/04/29 05:44:26;;;;;;;20.55;18.50;;;;;;;;;;2103880;28;20265;-55
2021/04/29 05:45:26;;;;;;;21.75;18.20;;;;;;;;;;2101162;28;20603;-54
2021/04/29 05:46:27;;;;;;;21.00;18.90;;;;;;;;;;2091360;28;20187;-57
2021/04/29 05:47:27;;;;;;;20.20;18.00;;;;;;;;;;2094294;28;20198;-56
2021/04/29 05:48:27;;;;;;;19.33;16.52;;;;;;;;;;2104238;28;20219;-55
2021/04/29 05:49:27;;;;;;;17.63;16.02;;;;;;;;;;2103176;28;20186;-53
2021/04/29 05:50:28;;;;;;;19.63;17.60;;;;;;;;;;2106141;28;20222;-55
2021/04/29 05:51:28;;;;;;;18.38;16.63;;;;;;;;;;2092543;28;20726;-57
2021/04/29 05:52:29;;;;;;;17.40;15.73;;;;;;;;;;2092237;28;20176;-56
2021/04/29 05:53:29;;;;;;;17.08;15.48;;;;;;;;;;2102670;28;20170;-53